sensor_id;sensor_type;location;lat;lon;timestamp;temperature;humidity
47961;DHT22;33721;48.852;9.936;2023-01-08T00:00:49;1.70;99.90
47961;DHT22;33721;48.852;9.936;2023-01-08T00:03:15;1.60;99.90
47961;DHT22;33721;48.852;9.936;2023-01-08T00:05:41;1.50;99.90
47961;DHT22;33721;48.852;9.936;2023-01-08T00:08:08;1.50;99.90
47961;DHT22;33721;48.852;9.936;2023-01-08T00:10:35;1.50;99.90
47961;DHT22;33721;48.852;9.936;2023-01-08T00:13:01;1.40;99.90
47961;DHT22;33721;48.852;9.936;2023-01-08T00:15:27;1.40;99.90
47961;DHT22;33721;48.852;9.936;2023-01-08T00:17:54;1.40;99.90
47961;DHT22;33721;48.852;9.936;2023-01-08T00:20:20;1.40;99.90
47961;DHT22;33721;48.852;9.936;2023-01-08T00:22:50;1.40;99.90
47961;DHT22;33721;48.852;9.936;2023-01-08T00:25:16;1.40;99.90
47961;DHT22;33721;48.852;9.936;2023-01-08T00:27:43;1.40;99.90
47961;DHT22;33721;48.852;9.936;2023-01-08T00:30:09;1.40;99.90
47961;DHT22;33721;48.852;9.936;2023-01-08T00:32:35;1.40;99.90
47961;DHT22;33721;48.852;9.936;2023-01-08T00:35:00;1.30;99.90
47961;DHT22;33721;48.852;9.936;2023-01-08T00:37:26;1.20;99.90
47961;DHT22;33721;48.852;9.936;2023-01-08T00:39:52;1.20;99.90
47961;DHT22;33721;48.852;9.936;2023-01-08T00:42:18;1.20;99.90
47961;DHT22;33721;48.852;9.936;2023-01-08T00:44:44;1.20;99.90
47961;DHT22;33721;48.852;9.936;2023-01-08T00:47:10;1.30;99.90
47961;DHT22;33721;48.852;9.936;2023-01-08T00:49:36;1.20;99.90
47961;DHT22;33721;48.852;9.936;2023-01-08T00:52:01;1.20;99.90
47961;DHT22;33721;48.852;9.936;2023-01-08T00:54:27;1.20;99.90
47961;DHT22;33721;48.852;9.936;2023-01-08T00:56:56;1.20;99.90
47961;DHT22;33721;48.852;9.936;2023-01-08T00:59:21;1.10;99.90
47961;DHT22;33721;48.852;9.936;2023-01-08T01:01:47;1.10;99.90
47961;DHT22;33721;48.852;9.936;2023-01-08T01:04:13;1.10;99.90
47961;DHT22;33721;48.852;9.936;2023-01-08T01:06:40;1.10;99.90
47961;DHT22;33721;48.852;9.936;2023-01-08T01:09:06;1.10;99.90
47961;DHT22;33721;48.852;9.936;2023-01-08T01:11:32;1.10;99.90
47961;DHT22;33721;48.852;9.936;2023-01-08T01:13:58;1.00;99.90
47961;DHT22;33721;48.852;9.936;2023-01-08T01:16:24;1.00;99.90
47961;DHT22;33721;48.852;9.936;2023-01-08T01:18:50;1.10;99.90
47961;DHT22;33721;48.852;9.936;2023-01-08T01:21:22;1.10;99.90
47961;DHT22;33721;48.852;9.936;2023-01-08T01:23:48;1.20;99.90
47961;DHT22;33721;48.852;9.936;2023-01-08T01:26:18;1.20;99.90
47961;DHT22;33721;48.852;9.936;2023-01-08T01:28:46;1.10;99.90
47961;DHT22;33721;48.852;9.936;2023-01-08T01:31:13;1.10;99.90
47961;DHT22;33721;48.852;9.936;2023-01-08T01:33:39;1.00;99.90
47961;DHT22;33721;48.852;9.936;2023-01-08T01:36:05;1.00;99.90
47961;DHT22;33721;48.852;9.936;2023-01-08T01:38:31;0.90;99.90
47961;DHT22;33721;48.852;9.936;2023-01-08T01:40:57;0.90;99.90
47961;DHT22;33721;48.852;9.936;2023-01-08T01:43:40;1.00;99.90
47961;DHT22;33721;48.852;9.936;2023-01-08T01:46:21;0.90;99.90
47961;DHT22;33721;48.852;9.936;2023-01-08T01:48:51;0.90;99.90
47961;DHT22;33721;48.852;9.936;2023-01-08T01:51:18;1.00;99.90
47961;DHT22;33721;48.852;9.936;2023-01-08T01:53:44;1.00;99.90
47961;DHT22;33721;48.852;9.936;2023-01-08T01:56:11;1.00;99.90
47961;DHT22;33721;48.852;9.936;2023-01-08T01:58:36;1.10;99.90
47961;DHT22;33721;48.852;9.936;2023-01-08T02:01:04;1.10;99.90
47961;DHT22;33721;48.852;9.936;2023-01-08T02:03:39;1.00;99.90
47961;DHT22;33721;48.852;9.936;2023-01-08T02:09:14;0.90;99.90
47961;DHT22;33721;48.852;9.936;2023-01-08T02:11:46;0.80;99.90
47961;DHT22;33721;48.852;9.936;2023-01-08T02:14:26;0.80;99.90
47961;DHT22;33721;48.852;9.936;2023-01-08T02:17:00;0.80;99.90
47961;DHT22;33721;48.852;9.936;2023-01-08T02:19:52;0.80;99.90
47961;DHT22;33721;48.852;9.936;2023-01-08T02:27:20;0.90;99.90
47961;DHT22;33721;48.852;9.936;2023-01-08T02:29:46;0.90;99.90
47961;DHT22;33721;48.852;9.936;2023-01-08T02:32:12;0.90;99.90
47961;DHT22;33721;48.852;9.936;2023-01-08T02:34:38;0.90;99.90
47961;DHT22;33721;48.852;9.936;2023-01-08T02:37:04;0.90;99.90
47961;DHT22;33721;48.852;9.936;2023-01-08T02:39:54;1.00;99.90
47961;DHT22;33721;48.852;9.936;2023-01-08T02:42:22;1.00;99.90
47961;DHT22;33721;48.852;9.936;2023-01-08T02:47:45;1.00;99.90
47961;DHT22;33721;48.852;9.936;2023-01-08T02:50:19;1.00;99.90
47961;DHT22;33721;48.852;9.936;2023-01-08T02:52:57;1.00;99.90
47961;DHT22;33721;48.852;9.936;2023-01-08T02:55:27;1.00;99.90
47961;DHT22;33721;48.852;9.936;2023-01-08T02:57:55;1.00;99.90
47961;DHT22;33721;48.852;9.936;2023-01-08T03:00:21;1.10;99.90
47961;DHT22;33721;48.852;9.936;2023-01-08T03:02:49;1.10;99.90
47961;DHT22;33721;48.852;9.936;2023-01-08T03:05:24;1.10;99.90
47961;DHT22;33721;48.852;9.936;2023-01-08T03:07:51;1.10;99.90
47961;DHT22;33721;48.852;9.936;2023-01-08T03:10:19;1.10;99.90
47961;DHT22;33721;48.852;9.936;2023-01-08T03:12:53;1.10;99.90
47961;DHT22;33721;48.852;9.936;2023-01-08T03:15:46;1.20;99.90
47961;DHT22;33721;48.852;9.936;2023-01-08T03:18:19;1.20;99.90
47961;DHT22;33721;48.852;9.936;2023-01-08T03:20:46;1.20;99.90
47961;DHT22;33721;48.852;9.936;2023-01-08T03:23:14;1.20;99.90
47961;DHT22;33721;48.852;9.936;2023-01-08T03:25:44;1.20;99.90
47961;DHT22;33721;48.852;9.936;2023-01-08T03:28:22;1.20;99.90
47961;DHT22;33721;48.852;9.936;2023-01-08T03:30:51;1.20;99.90
47961;DHT22;33721;48.852;9.936;2023-01-08T03:33:18;1.10;99.90
47961;DHT22;33721;48.852;9.936;2023-01-08T03:35:46;1.00;99.90
47961;DHT22;33721;48.852;9.936;2023-01-08T03:38:18;1.10;99.90
47961;DHT22;33721;48.852;9.936;2023-01-08T03:40:48;1.10;99.90
47961;DHT22;33721;48.852;9.936;2023-01-08T03:43:16;1.10;99.90
47961;DHT22;33721;48.852;9.936;2023-01-08T03:45:55;1.10;99.90
47961;DHT22;33721;48.852;9.936;2023-01-08T03:48:22;1.10;99.90
47961;DHT22;33721;48.852;9.936;2023-01-08T03:50:49;1.10;99.90
47961;DHT22;33721;48.852;9.936;2023-01-08T03:53:15;1.10;99.90
47961;DHT22;33721;48.852;9.936;2023-01-08T03:55:40;1.10;99.90
47961;DHT22;33721;48.852;9.936;2023-01-08T03:58:06;1.10;99.90
47961;DHT22;33721;48.852;9.936;2023-01-08T04:00:32;1.20;99.90
47961;DHT22;33721;48.852;9.936;2023-01-08T04:02:57;1.20;99.90
47961;DHT22;33721;48.852;9.936;2023-01-08T04:05:23;1.20;99.90
47961;DHT22;33721;48.852;9.936;2023-01-08T04:07:49;1.20;99.90
47961;DHT22;33721;48.852;9.936;2023-01-08T04:10:15;1.30;99.90
47961;DHT22;33721;48.852;9.936;2023-01-08T04:12:43;1.30;99.90
47961;DHT22;33721;48.852;9.936;2023-01-08T04:15:09;1.40;99.90
47961;DHT22;33721;48.852;9.936;2023-01-08T04:17:35;1.40;99.90
47961;DHT22;33721;48.852;9.936;2023-01-08T04:20:01;1.50;99.90
47961;DHT22;33721;48.852;9.936;2023-01-08T04:22:26;1.50;99.90
47961;DHT22;33721;48.852;9.936;2023-01-08T04:24:52;1.50;99.90
47961;DHT22;33721;48.852;9.936;2023-01-08T04:27:17;1.60;99.90
47961;DHT22;33721;48.852;9.936;2023-01-08T04:29:43;1.90;99.90
47961;DHT22;33721;48.852;9.936;2023-01-08T04:32:09;2.00;99.90
47961;DHT22;33721;48.852;9.936;2023-01-08T04:34:34;2.10;99.90
47961;DHT22;33721;48.852;9.936;2023-01-08T04:37:00;2.40;99.90
47961;DHT22;33721;48.852;9.936;2023-01-08T04:39:26;2.70;99.90
47961;DHT22;33721;48.852;9.936;2023-01-08T04:41:52;3.10;99.90
47961;DHT22;33721;48.852;9.936;2023-01-08T04:44:17;3.40;99.90
47961;DHT22;33721;48.852;9.936;2023-01-08T04:46:43;3.60;99.90
47961;DHT22;33721;48.852;9.936;2023-01-08T04:49:10;3.90;99.90
47961;DHT22;33721;48.852;9.936;2023-01-08T04:51:35;4.10;99.90
47961;DHT22;33721;48.852;9.936;2023-01-08T04:54:01;4.20;99.90
47961;DHT22;33721;48.852;9.936;2023-01-08T04:56:27;4.30;99.90
47961;DHT22;33721;48.852;9.936;2023-01-08T04:58:52;4.40;99.90
47961;DHT22;33721;48.852;9.936;2023-01-08T05:01:21;4.40;99.90
47961;DHT22;33721;48.852;9.936;2023-01-08T05:03:47;4.50;99.90
47961;DHT22;33721;48.852;9.936;2023-01-08T05:06:13;4.50;99.90
47961;DHT22;33721;48.852;9.936;2023-01-08T05:08:38;4.50;99.90
47961;DHT22;33721;48.852;9.936;2023-01-08T05:11:04;4.60;99.90
47961;DHT22;33721;48.852;9.936;2023-01-08T05:13:30;4.60;99.90
47961;DHT22;33721;48.852;9.936;2023-01-08T05:15:59;4.70;99.90
47961;DHT22;33721;48.852;9.936;2023-01-08T05:18:25;4.80;99.90
47961;DHT22;33721;48.852;9.936;2023-01-08T05:20:51;4.80;99.90
47961;DHT22;33721;48.852;9.936;2023-01-08T05:23:17;4.90;99.90
47961;DHT22;33721;48.852;9.936;2023-01-08T05:25:42;4.90;99.90
47961;DHT22;33721;48.852;9.936;2023-01-08T05:28:08;4.70;99.90
47961;DHT22;33721;48.852;9.936;2023-01-08T05:30:35;4.60;99.90
47961;DHT22;33721;48.852;9.936;2023-01-08T05:33:01;4.20;99.90
47961;DHT22;33721;48.852;9.936;2023-01-08T05:35:26;3.80;99.90
47961;DHT22;33721;48.852;9.936;2023-01-08T05:37:52;3.50;99.90
47961;DHT22;33721;48.852;9.936;2023-01-08T05:40:18;3.30;99.90
47961;DHT22;33721;48.852;9.936;2023-01-08T05:42:43;3.10;99.90
47961;DHT22;33721;48.852;9.936;2023-01-08T05:45:09;3.00;99.90
47961;DHT22;33721;48.852;9.936;2023-01-08T05:47:34;2.90;99.90
47961;DHT22;33721;48.852;9.936;2023-01-08T05:50:00;2.90;99.90
47961;DHT22;33721;48.852;9.936;2023-01-08T05:52:26;3.00;99.90
47961;DHT22;33721;48.852;9.936;2023-01-08T05:54:52;3.00;99.90
47961;DHT22;33721;48.852;9.936;2023-01-08T05:57:18;3.00;99.90
47961;DHT22;33721;48.852;9.936;2023-01-08T05:59:43;3.00;99.90
47961;DHT22;33721;48.852;9.936;2023-01-08T06:02:09;3.00;99.90
47961;DHT22;33721;48.852;9.936;2023-01-08T06:04:35;2.90;99.90
47961;DHT22;33721;48.852;9.936;2023-01-08T06:07:00;2.90;99.90
47961;DHT22;33721;48.852;9.936;2023-01-08T06:09:26;2.90;99.90
47961;DHT22;33721;48.852;9.936;2023-01-08T06:11:51;2.90;99.90
47961;DHT22;33721;48.852;9.936;2023-01-08T06:14:17;2.90;99.90
47961;DHT22;33721;48.852;9.936;2023-01-08T06:16:43;2.80;99.90
47961;DHT22;33721;48.852;9.936;2023-01-08T06:19:10;2.80;99.90
47961;DHT22;33721;48.852;9.936;2023-01-08T06:21:36;2.90;99.90
47961;DHT22;33721;48.852;9.936;2023-01-08T06:24:01;2.90;99.90
47961;DHT22;33721;48.852;9.936;2023-01-08T06:26:27;2.90;99.90
47961;DHT22;33721;48.852;9.936;2023-01-08T06:28:53;2.70;99.90
47961;DHT22;33721;48.852;9.936;2023-01-08T06:31:18;2.60;99.90
47961;DHT22;33721;48.852;9.936;2023-01-08T06:33:44;2.60;99.90
47961;DHT22;33721;48.852;9.936;2023-01-08T06:36:09;2.60;99.90
47961;DHT22;33721;48.852;9.936;2023-01-08T06:38:35;2.50;99.90
47961;DHT22;33721;48.852;9.936;2023-01-08T06:41:05;2.50;99.90
47961;DHT22;33721;48.852;9.936;2023-01-08T06:43:35;2.50;99.90
47961;DHT22;33721;48.852;9.936;2023-01-08T06:46:01;2.60;99.90
47961;DHT22;33721;48.852;9.936;2023-01-08T06:48:27;2.60;99.90
47961;DHT22;33721;48.852;9.936;2023-01-08T06:50:53;2.70;99.90
47961;DHT22;33721;48.852;9.936;2023-01-08T06:53:19;2.80;99.90
47961;DHT22;33721;48.852;9.936;2023-01-08T06:55:44;2.80;99.90
47961;DHT22;33721;48.852;9.936;2023-01-08T06:58:10;2.90;99.90
47961;DHT22;33721;48.852;9.936;2023-01-08T07:00:37;3.00;99.90
47961;DHT22;33721;48.852;9.936;2023-01-08T07:03:04;3.10;99.90
47961;DHT22;33721;48.852;9.936;2023-01-08T07:05:29;3.30;99.90
47961;DHT22;33721;48.852;9.936;2023-01-08T07:07:55;3.50;99.90
47961;DHT22;33721;48.852;9.936;2023-01-08T07:10:21;3.80;99.90
47961;DHT22;33721;48.852;9.936;2023-01-08T07:12:47;3.90;99.90
47961;DHT22;33721;48.852;9.936;2023-01-08T07:15:13;3.90;99.90
47961;DHT22;33721;48.852;9.936;2023-01-08T07:17:39;3.80;99.90
47961;DHT22;33721;48.852;9.936;2023-01-08T07:20:05;3.80;99.90
47961;DHT22;33721;48.852;9.936;2023-01-08T07:22:31;3.80;99.90
47961;DHT22;33721;48.852;9.936;2023-01-08T07:24:56;4.00;99.90
47961;DHT22;33721;48.852;9.936;2023-01-08T07:27:23;4.00;99.90
47961;DHT22;33721;48.852;9.936;2023-01-08T07:29:48;3.90;99.90
47961;DHT22;33721;48.852;9.936;2023-01-08T07:32:14;3.90;99.90
47961;DHT22;33721;48.852;9.936;2023-01-08T07:34:39;4.30;99.90
47961;DHT22;33721;48.852;9.936;2023-01-08T07:37:05;4.50;99.90
47961;DHT22;33721;48.852;9.936;2023-01-08T07:39:31;4.30;99.90
47961;DHT22;33721;48.852;9.936;2023-01-08T07:41:56;4.40;99.90
47961;DHT22;33721;48.852;9.936;2023-01-08T07:44:22;4.60;99.90
47961;DHT22;33721;48.852;9.936;2023-01-08T07:46:48;4.50;99.90
47961;DHT22;33721;48.852;9.936;2023-01-08T07:49:13;4.50;99.90
47961;DHT22;33721;48.852;9.936;2023-01-08T07:51:39;4.80;99.90
47961;DHT22;33721;48.852;9.936;2023-01-08T07:54:05;5.20;99.90
47961;DHT22;33721;48.852;9.936;2023-01-08T07:56:30;5.60;99.90
47961;DHT22;33721;48.852;9.936;2023-01-08T07:58:56;5.70;99.90
47961;DHT22;33721;48.852;9.936;2023-01-08T08:01:22;5.90;99.90
47961;DHT22;33721;48.852;9.936;2023-01-08T08:03:48;5.40;99.90
47961;DHT22;33721;48.852;9.936;2023-01-08T08:06:13;5.00;99.90
47961;DHT22;33721;48.852;9.936;2023-01-08T08:08:39;4.90;99.90
47961;DHT22;33721;48.852;9.936;2023-01-08T08:11:05;5.00;99.90
47961;DHT22;33721;48.852;9.936;2023-01-08T08:13:30;5.10;99.90
47961;DHT22;33721;48.852;9.936;2023-01-08T08:16:00;5.30;99.90
47961;DHT22;33721;48.852;9.936;2023-01-08T08:18:26;5.40;99.90
47961;DHT22;33721;48.852;9.936;2023-01-08T08:20:52;5.40;99.90
47961;DHT22;33721;48.852;9.936;2023-01-08T08:23:17;5.50;99.90
47961;DHT22;33721;48.852;9.936;2023-01-08T08:25:43;5.50;99.90
47961;DHT22;33721;48.852;9.936;2023-01-08T08:28:10;5.50;99.90
47961;DHT22;33721;48.852;9.936;2023-01-08T08:30:36;5.50;99.90
47961;DHT22;33721;48.852;9.936;2023-01-08T08:33:04;5.60;99.90
47961;DHT22;33721;48.852;9.936;2023-01-08T08:35:33;5.70;99.90
47961;DHT22;33721;48.852;9.936;2023-01-08T08:37:59;5.80;99.90
47961;DHT22;33721;48.852;9.936;2023-01-08T08:40:25;5.70;99.90
47961;DHT22;33721;48.852;9.936;2023-01-08T08:42:55;5.70;99.90
47961;DHT22;33721;48.852;9.936;2023-01-08T08:45:22;5.70;99.90
47961;DHT22;33721;48.852;9.936;2023-01-08T08:47:47;5.70;99.90
47961;DHT22;33721;48.852;9.936;2023-01-08T08:50:13;5.70;99.90
47961;DHT22;33721;48.852;9.936;2023-01-08T08:52:38;5.70;99.90
47961;DHT22;33721;48.852;9.936;2023-01-08T08:55:05;5.70;99.90
47961;DHT22;33721;48.852;9.936;2023-01-08T08:57:31;5.80;99.90
47961;DHT22;33721;48.852;9.936;2023-01-08T08:59:57;5.90;99.90
47961;DHT22;33721;48.852;9.936;2023-01-08T09:02:22;5.90;99.90
47961;DHT22;33721;48.852;9.936;2023-01-08T09:04:48;6.00;99.90
47961;DHT22;33721;48.852;9.936;2023-01-08T09:07:14;6.00;99.90
47961;DHT22;33721;48.852;9.936;2023-01-08T09:09:39;6.00;99.90
47961;DHT22;33721;48.852;9.936;2023-01-08T09:12:05;6.10;99.90
47961;DHT22;33721;48.852;9.936;2023-01-08T09:14:31;6.10;99.90
47961;DHT22;33721;48.852;9.936;2023-01-08T09:16:57;6.20;99.90
47961;DHT22;33721;48.852;9.936;2023-01-08T09:19:23;6.20;99.90
47961;DHT22;33721;48.852;9.936;2023-01-08T09:21:48;6.20;99.90
47961;DHT22;33721;48.852;9.936;2023-01-08T09:24:15;6.30;99.90
47961;DHT22;33721;48.852;9.936;2023-01-08T09:26:41;6.30;99.90
47961;DHT22;33721;48.852;9.936;2023-01-08T09:29:07;6.20;99.90
47961;DHT22;33721;48.852;9.936;2023-01-08T09:31:33;6.20;99.90
47961;DHT22;33721;48.852;9.936;2023-01-08T09:33:59;6.20;99.90
47961;DHT22;33721;48.852;9.936;2023-01-08T09:36:25;6.20;99.90
47961;DHT22;33721;48.852;9.936;2023-01-08T09:38:50;6.10;99.90
47961;DHT22;33721;48.852;9.936;2023-01-08T09:43:48;6.20;99.90
47961;DHT22;33721;48.852;9.936;2023-01-08T09:46:17;6.20;99.90
47961;DHT22;33721;48.852;9.936;2023-01-08T09:48:44;6.20;99.90
47961;DHT22;33721;48.852;9.936;2023-01-08T09:51:15;6.30;99.90
47961;DHT22;33721;48.852;9.936;2023-01-08T09:53:42;6.30;99.90
47961;DHT22;33721;48.852;9.936;2023-01-08T09:56:16;6.30;99.90
47961;DHT22;33721;48.852;9.936;2023-01-08T09:58:53;6.30;99.90
47961;DHT22;33721;48.852;9.936;2023-01-08T10:01:37;6.40;99.90
47961;DHT22;33721;48.852;9.936;2023-01-08T10:06:40;6.50;99.90
47961;DHT22;33721;48.852;9.936;2023-01-08T10:09:08;6.50;99.90
47961;DHT22;33721;48.852;9.936;2023-01-08T10:11:45;6.60;99.90
47961;DHT22;33721;48.852;9.936;2023-01-08T10:14:29;6.70;99.90
47961;DHT22;33721;48.852;9.936;2023-01-08T10:17:16;6.70;99.90
47961;DHT22;33721;48.852;9.936;2023-01-08T10:19:44;6.80;99.90
47961;DHT22;33721;48.852;9.936;2023-01-08T10:22:14;6.80;99.90
47961;DHT22;33721;48.852;9.936;2023-01-08T10:24:40;6.90;99.90
47961;DHT22;33721;48.852;9.936;2023-01-08T10:27:19;6.90;99.90
47961;DHT22;33721;48.852;9.936;2023-01-08T10:29:45;6.80;99.90
47961;DHT22;33721;48.852;9.936;2023-01-08T10:32:16;6.70;99.90
47961;DHT22;33721;48.852;9.936;2023-01-08T10:34:50;6.70;99.90
47961;DHT22;33721;48.852;9.936;2023-01-08T10:37:30;6.80;99.90
47961;DHT22;33721;48.852;9.936;2023-01-08T10:40:40;6.90;99.90
47961;DHT22;33721;48.852;9.936;2023-01-08T10:43:19;7.00;99.90
47961;DHT22;33721;48.852;9.936;2023-01-08T10:46:06;7.10;99.90
47961;DHT22;33721;48.852;9.936;2023-01-08T10:48:44;7.30;99.90
47961;DHT22;33721;48.852;9.936;2023-01-08T10:51:17;7.40;99.90
47961;DHT22;33721;48.852;9.936;2023-01-08T10:53:43;7.40;99.90
47961;DHT22;33721;48.852;9.936;2023-01-08T10:56:22;7.50;99.90
47961;DHT22;33721;48.852;9.936;2023-01-08T10:58:48;7.50;99.90
47961;DHT22;33721;48.852;9.936;2023-01-08T11:01:23;7.60;99.90
47961;DHT22;33721;48.852;9.936;2023-01-08T11:03:57;7.60;99.90
47961;DHT22;33721;48.852;9.936;2023-01-08T11:06:26;7.60;99.90
47961;DHT22;33721;48.852;9.936;2023-01-08T11:08:54;7.70;99.90
47961;DHT22;33721;48.852;9.936;2023-01-08T11:11:22;7.80;99.90
47961;DHT22;33721;48.852;9.936;2023-01-08T11:13:55;7.80;99.90
47961;DHT22;33721;48.852;9.936;2023-01-08T11:16:22;7.80;99.90
47961;DHT22;33721;48.852;9.936;2023-01-08T11:18:54;7.90;99.90
47961;DHT22;33721;48.852;9.936;2023-01-08T11:21:25;7.80;99.90
47961;DHT22;33721;48.852;9.936;2023-01-08T11:24:23;7.90;99.90
47961;DHT22;33721;48.852;9.936;2023-01-08T11:26:52;8.00;99.90
47961;DHT22;33721;48.852;9.936;2023-01-08T11:31:58;8.10;99.90
47961;DHT22;33721;48.852;9.936;2023-01-08T11:34:33;8.10;99.90
47961;DHT22;33721;48.852;9.936;2023-01-08T11:37:47;8.10;99.90
47961;DHT22;33721;48.852;9.936;2023-01-08T11:40:11;8.20;99.90
47961;DHT22;33721;48.852;9.936;2023-01-08T12:42:48;9.00;99.90
47961;DHT22;33721;48.852;9.936;2023-01-08T12:45:36;9.00;99.90
47961;DHT22;33721;48.852;9.936;2023-01-08T12:48:07;9.10;99.90
47961;DHT22;33721;48.852;9.936;2023-01-08T12:50:55;9.00;99.90
47961;DHT22;33721;48.852;9.936;2023-01-08T12:59:08;9.10;99.90
47961;DHT22;33721;48.852;9.936;2023-01-08T13:04:54;9.10;99.90
47961;DHT22;33721;48.852;9.936;2023-01-08T13:07:29;9.10;99.90
47961;DHT22;33721;48.852;9.936;2023-01-08T13:10:05;9.10;99.90
47961;DHT22;33721;48.852;9.936;2023-01-08T13:12:34;9.00;99.90
47961;DHT22;33721;48.852;9.936;2023-01-08T13:15:00;9.10;99.90
47961;DHT22;33721;48.852;9.936;2023-01-08T13:17:27;9.10;99.90
47961;DHT22;33721;48.852;9.936;2023-01-08T13:19:55;9.00;99.90
47961;DHT22;33721;48.852;9.936;2023-01-08T13:22:27;9.00;99.90
47961;DHT22;33721;48.852;9.936;2023-01-08T13:25:09;9.10;99.90
47961;DHT22;33721;48.852;9.936;2023-01-08T13:27:35;9.10;99.90
47961;DHT22;33721;48.852;9.936;2023-01-08T13:30:00;9.10;99.90
47961;DHT22;33721;48.852;9.936;2023-01-08T13:32:36;9.10;99.90
47961;DHT22;33721;48.852;9.936;2023-01-08T13:37:42;9.00;99.90
47961;DHT22;33721;48.852;9.936;2023-01-08T13:43:39;9.00;99.90
47961;DHT22;33721;48.852;9.936;2023-01-08T13:46:16;8.90;99.90
47961;DHT22;33721;48.852;9.936;2023-01-08T13:49:06;8.90;99.90
47961;DHT22;33721;48.852;9.936;2023-01-08T13:51:41;8.90;99.90
47961;DHT22;33721;48.852;9.936;2023-01-08T13:54:15;8.90;99.90
47961;DHT22;33721;48.852;9.936;2023-01-08T13:56:43;8.90;99.90
47961;DHT22;33721;48.852;9.936;2023-01-08T13:59:33;8.90;99.90
47961;DHT22;33721;48.852;9.936;2023-01-08T14:02:01;8.90;99.90
47961;DHT22;33721;48.852;9.936;2023-01-08T14:04:26;8.90;99.90
47961;DHT22;33721;48.852;9.936;2023-01-08T14:06:52;8.90;99.90
47961;DHT22;33721;48.852;9.936;2023-01-08T14:09:21;8.90;99.90
47961;DHT22;33721;48.852;9.936;2023-01-08T14:11:48;8.90;99.90
47961;DHT22;33721;48.852;9.936;2023-01-08T14:14:17;8.80;99.90
47961;DHT22;33721;48.852;9.936;2023-01-08T14:16:45;8.90;99.90
47961;DHT22;33721;48.852;9.936;2023-01-08T14:19:18;8.80;99.90
47961;DHT22;33721;48.852;9.936;2023-01-08T14:21:56;8.80;99.90
47961;DHT22;33721;48.852;9.936;2023-01-08T14:24:23;8.90;99.90
47961;DHT22;33721;48.852;9.936;2023-01-08T14:26:57;8.90;99.90
47961;DHT22;33721;48.852;9.936;2023-01-08T14:29:26;9.00;99.90
47961;DHT22;33721;48.852;9.936;2023-01-08T14:31:55;9.00;99.90
47961;DHT22;33721;48.852;9.936;2023-01-08T14:34:22;9.00;99.90
47961;DHT22;33721;48.852;9.936;2023-01-08T14:36:50;9.10;99.90
47961;DHT22;33721;48.852;9.936;2023-01-08T14:39:31;9.10;99.90
47961;DHT22;33721;48.852;9.936;2023-01-08T14:41:59;9.20;99.90
47961;DHT22;33721;48.852;9.936;2023-01-08T14:44:44;9.20;99.90
47961;DHT22;33721;48.852;9.936;2023-01-08T14:47:17;9.20;99.90
47961;DHT22;33721;48.852;9.936;2023-01-08T14:49:48;9.20;99.90
47961;DHT22;33721;48.852;9.936;2023-01-08T14:52:15;9.20;99.90
47961;DHT22;33721;48.852;9.936;2023-01-08T14:54:44;9.20;99.90
47961;DHT22;33721;48.852;9.936;2023-01-08T14:57:12;9.10;99.90
47961;DHT22;33721;48.852;9.936;2023-01-08T14:59:38;9.00;99.90
47961;DHT22;33721;48.852;9.936;2023-01-08T15:02:05;9.00;99.90
47961;DHT22;33721;48.852;9.936;2023-01-08T15:04:32;8.90;99.90
47961;DHT22;33721;48.852;9.936;2023-01-08T15:07:18;8.90;99.90
47961;DHT22;33721;48.852;9.936;2023-01-08T15:09:58;8.90;99.90
47961;DHT22;33721;48.852;9.936;2023-01-08T15:12:26;8.90;99.90
47961;DHT22;33721;48.852;9.936;2023-01-08T15:14:52;8.90;99.90
47961;DHT22;33721;48.852;9.936;2023-01-08T15:17:22;8.80;99.90
47961;DHT22;33721;48.852;9.936;2023-01-08T15:19:57;8.80;99.90
47961;DHT22;33721;48.852;9.936;2023-01-08T15:22:25;8.80;99.90
47961;DHT22;33721;48.852;9.936;2023-01-08T15:24:57;8.80;99.90
47961;DHT22;33721;48.852;9.936;2023-01-08T15:27:24;8.80;99.90
47961;DHT22;33721;48.852;9.936;2023-01-08T15:29:52;8.70;99.90
47961;DHT22;33721;48.852;9.936;2023-01-08T15:32:27;8.70;99.90
47961;DHT22;33721;48.852;9.936;2023-01-08T15:34:54;8.70;99.90
47961;DHT22;33721;48.852;9.936;2023-01-08T15:37:20;8.70;99.90
47961;DHT22;33721;48.852;9.936;2023-01-08T15:39:45;8.60;99.90
47961;DHT22;33721;48.852;9.936;2023-01-08T15:42:30;8.60;99.90
47961;DHT22;33721;48.852;9.936;2023-01-08T15:45:20;8.50;99.90
47961;DHT22;33721;48.852;9.936;2023-01-08T15:47:47;8.50;99.90
47961;DHT22;33721;48.852;9.936;2023-01-08T15:50:13;8.50;99.90
47961;DHT22;33721;48.852;9.936;2023-01-08T15:52:40;8.40;99.90
47961;DHT22;33721;48.852;9.936;2023-01-08T15:55:15;8.40;99.90
47961;DHT22;33721;48.852;9.936;2023-01-08T15:57:41;8.40;99.90
47961;DHT22;33721;48.852;9.936;2023-01-08T16:00:08;8.30;99.90
47961;DHT22;33721;48.852;9.936;2023-01-08T16:02:45;8.20;99.90
47961;DHT22;33721;48.852;9.936;2023-01-08T16:05:11;8.20;99.90
47961;DHT22;33721;48.852;9.936;2023-01-08T16:07:37;8.10;99.90
47961;DHT22;33721;48.852;9.936;2023-01-08T16:10:03;8.10;99.90
47961;DHT22;33721;48.852;9.936;2023-01-08T16:12:29;8.10;99.90
47961;DHT22;33721;48.852;9.936;2023-01-08T16:14:54;8.10;99.90
47961;DHT22;33721;48.852;9.936;2023-01-08T16:17:20;8.10;99.90
47961;DHT22;33721;48.852;9.936;2023-01-08T16:19:46;8.10;99.90
47961;DHT22;33721;48.852;9.936;2023-01-08T16:22:11;8.10;99.90
47961;DHT22;33721;48.852;9.936;2023-01-08T16:24:37;8.10;99.90
47961;DHT22;33721;48.852;9.936;2023-01-08T16:27:02;8.00;99.90
47961;DHT22;33721;48.852;9.936;2023-01-08T16:29:28;8.00;99.90
47961;DHT22;33721;48.852;9.936;2023-01-08T16:31:54;8.00;99.90
47961;DHT22;33721;48.852;9.936;2023-01-08T16:34:20;7.90;99.90
47961;DHT22;33721;48.852;9.936;2023-01-08T16:36:47;7.90;99.90
47961;DHT22;33721;48.852;9.936;2023-01-08T16:39:13;7.90;99.90
47961;DHT22;33721;48.852;9.936;2023-01-08T16:41:39;7.90;99.90
47961;DHT22;33721;48.852;9.936;2023-01-08T16:44:04;7.80;99.90
47961;DHT22;33721;48.852;9.936;2023-01-08T16:46:30;7.80;99.90
47961;DHT22;33721;48.852;9.936;2023-01-08T16:48:56;7.80;99.90
47961;DHT22;33721;48.852;9.936;2023-01-08T16:51:22;7.70;99.90
47961;DHT22;33721;48.852;9.936;2023-01-08T16:53:49;7.60;99.90
47961;DHT22;33721;48.852;9.936;2023-01-08T16:56:15;7.60;99.90
47961;DHT22;33721;48.852;9.936;2023-01-08T16:58:41;7.50;99.90
47961;DHT22;33721;48.852;9.936;2023-01-08T17:01:08;7.50;99.90
47961;DHT22;33721;48.852;9.936;2023-01-08T17:03:34;7.50;99.90
47961;DHT22;33721;48.852;9.936;2023-01-08T17:06:07;7.40;99.90
47961;DHT22;33721;48.852;9.936;2023-01-08T17:08:33;7.40;99.90
47961;DHT22;33721;48.852;9.936;2023-01-08T17:11:06;7.40;99.90
47961;DHT22;33721;48.852;9.936;2023-01-08T17:13:32;7.30;99.90
47961;DHT22;33721;48.852;9.936;2023-01-08T17:15:58;7.30;99.90
47961;DHT22;33721;48.852;9.936;2023-01-08T17:18:26;7.30;99.90
47961;DHT22;33721;48.852;9.936;2023-01-08T17:20:53;7.30;99.90
47961;DHT22;33721;48.852;9.936;2023-01-08T17:23:18;7.30;99.90
47961;DHT22;33721;48.852;9.936;2023-01-08T17:25:44;7.20;99.90
47961;DHT22;33721;48.852;9.936;2023-01-08T17:28:10;7.10;99.90